Time;durP1;ratioP1;P1;durP2;ratioP2;P2;SDS_P1;SDS_P2;PMS_P1;PMS_P2;Temp;Humidity;BMP_temperature;BMP_pressure;BME280_temperature;BME280_humidity;BME280_pressure;Samples;Min_cycle;Max_cycle;Signal;HPM_P1;HPM_P2
2023/11/26 00:00:43;;;;;;;10.30;2.40;;;;;;;6.25;100.00;100946.97;5008393;28;20041;-43
2023/11/26 00:03:11;;;;;;;11.65;4.18;;;;;;;6.26;100.00;100948.63;5007963;28;20053;-48
2023/11/26 00:05:39;;;;;;;7.55;3.65;;;;;;;6.27;100.00;100933.75;5007887;28;20064;-45
2023/11/26 00:08:06;;;;;;;9.68;4.10;;;;;;;6.29;100.00;100936.19;5007875;28;20381;-44
2023/11/26 00:10:33;;;;;;;6.75;2.70;;;;;;;6.32;100.00;100936.38;5006691;28;20049;-44
2023/11/26 00:13:00;;;;;;;7.15;2.97;;;;;;;6.32;100.00;100941.88;5007162;28;20045;-45
2023/11/26 00:15:28;;;;;;;10.20;3.70;;;;;;;6.33;100.00;100931.69;5005388;28;20046;-43
2023/11/26 00:17:56;;;;;;;15.23;4.65;;;;;;;6.34;100.00;100925.88;5007594;28;20041;-44
2023/11/26 00:20:24;;;;;;;12.45;3.55;;;;;;;6.34;100.00;100925.88;5006590;28;20041;-44
2023/11/26 00:22:51;;;;;;;10.48;4.20;;;;;;;6.35;100.00;100922.00;5006362;28;20688;-44
2023/11/26 00:25:18;;;;;;;12.70;4.18;;;;;;;6.37;100.00;100930.75;5007693;28;20065;-45
2023/11/26 00:27:46;;;;;;;11.10;4.55;;;;;;;6.36;100.00;100931.03;5007311;28;20057;-43
2023/11/26 00:30:14;;;;;;;9.20;4.40;;;;;;;6.38;100.00;100928.81;4989541;28;20141;-43
2023/11/26 00:32:42;;;;;;;13.85;5.57;;;;;;;6.37;100.00;100928.00;4999122;28;20084;-43
2023/11/26 00:35:09;;;;;;;8.48;5.60;;;;;;;6.37;100.00;100928.00;5007286;28;20416;-45
2023/11/26 00:37:36;;;;;;;14.20;5.80;;;;;;;6.37;100.00;100913.44;5006936;28;20527;-44
2023/11/26 00:40:05;;;;;;;14.57;6.82;;;;;;;6.38;100.00;100924.09;5007425;28;20054;-43
2023/11/26 00:42:34;;;;;;;8.63;5.05;;;;;;;6.40;100.00;100926.56;5007312;28;20602;-44
2023/11/26 00:45:01;;;;;;;13.82;6.40;;;;;;;6.40;100.00;100923.81;5007824;28;20042;-44
2023/11/26 00:47:29;;;;;;;14.43;6.88;;;;;;;6.40;100.00;100916.38;5007653;28;20057;-44
2023/11/26 00:50:00;;;;;;;11.00;5.78;;;;;;;6.41;100.00;100917.16;5006848;28;20042;-44
2023/11/26 00:52:28;;;;;;;14.32;6.97;;;;;;;6.40;100.00;100915.56;5007712;28;20054;-44
2023/11/26 00:54:55;;;;;;;11.18;6.28;;;;;;;6.40;100.00;100910.88;5007126;28;20173;-46
2023/11/26 00:57:23;;;;;;;15.15;5.85;;;;;;;6.41;100.00;100906.16;5007688;28;20141;-43
2023/11/26 00:59:50;;;;;;;14.13;5.38;;;;;;;6.40;100.00;100894.38;5005821;28;20054;-43
2023/11/26 01:02:19;;;;;;;15.38;5.65;;;;;;;6.41;100.00;100895.16;5005939;28;20053;-46
2023/11/26 01:04:47;;;;;;;16.58;6.70;;;;;;;6.41;100.00;100884.97;5006629;28;20049;-43
2023/11/26 01:07:14;;;;;;;11.70;5.15;;;;;;;6.40;100.00;100890.81;5007535;28;20057;-44
2023/11/26 01:09:42;;;;;;;12.40;5.88;;;;;;;6.40;100.00;100888.06;5006446;28;20045;-44
2023/11/26 01:12:09;;;;;;;18.17;7.47;;;;;;;6.39;100.00;100881.75;5007401;28;20594;-44
2023/11/26 01:14:37;;;;;;;14.38;8.20;;;;;;;6.38;100.00;100885.59;4999058;28;20049;-45
2023/11/26 01:17:04;;;;;;;21.75;9.80;;;;;;;6.37;100.00;100878.50;5006881;28;20411;-46
2023/11/26 01:19:32;;;;;;;24.42;12.80;;;;;;;6.37;100.00;100877.69;5007176;28;20080;-43
2023/11/26 01:22:00;;;;;;;21.75;11.25;;;;;;;6.35;100.00;100869.75;5003681;28;20054;-44
2023/11/26 01:24:27;;;;;;;28.05;12.68;;;;;;;6.35;100.00;100866.19;5006093;28;20046;-44
2023/11/26 01:26:54;;;;;;;24.50;13.10;;;;;;;6.34;100.00;100868.13;5007140;28;20064;-47
2023/11/26 01:29:21;;;;;;;35.10;18.45;;;;;;;6.34;100.00;100867.31;5007515;28;20092;-43
2023/11/26 01:31:49;;;;;;;26.77;13.00;;;;;;;6.35;100.00;100863.44;4988219;28;20046;-45
2023/11/26 01:34:16;;;;;;;23.13;10.93;;;;;;;6.34;100.00;100859.88;5007364;28;20050;-48
2023/11/26 01:36:44;;;;;;;18.55;9.30;;;;;;;6.35;100.00;100864.25;5007027;28;20604;-44
2023/11/26 01:39:11;;;;;;;19.35;9.25;;;;;;;6.34;100.00;100859.88;5007151;28;20080;-43
2023/11/26 01:41:38;;;;;;;19.40;9.85;;;;;;;6.34;100.00;100873.63;5006309;28;20050;-43
2023/11/26 01:44:06;;;;;;;16.42;8.65;;;;;;;6.35;100.00;100868.94;5007062;28;20496;-43
2023/11/26 01:46:33;;;;;;;16.65;10.52;;;;;;;6.34;100.00;100868.13;5005838;28;20042;-42
2023/11/26 01:49:00;;;;;;;13.32;7.68;;;;;;;6.37;100.00;100862.00;5006571;28;20554;-45
2023/11/26 01:51:31;;;;;;;14.57;8.80;;;;;;;6.38;100.00;100858.09;4994134;28;20451;-43
2023/11/26 01:54:00;;;;;;;16.30;7.80;;;;;;;6.38;100.00;100863.59;5006683;28;20072;-45
2023/11/26 01:56:28;;;;;;;16.42;7.95;;;;;;;6.39;100.00;100854.25;5006868;28;20041;-45
2023/11/26 01:58:56;;;;;;;14.77;7.47;;;;;;;6.38;100.00;100847.09;5006986;28;20515;-43
2023/11/26 02:01:25;;;;;;;13.55;6.45;;;;;;;6.39;100.00;100853.44;5006500;28;20057;-45
2023/11/26 02:03:53;;;;;;;9.23;5.47;;;;;;;6.38;100.00;100844.34;5003229;28;20049;-44
2023/11/26 02:06:20;;;;;;;11.95;6.15;;;;;;;6.39;100.00;100847.94;5006492;28;20053;-43
2023/11/26 02:08:48;;;;;;;13.80;7.07;;;;;;;6.39;100.00;100840.50;5010733;28;20076;-44
2023/11/26 02:11:15;;;;;;;9.35;5.38;;;;;;;6.39;100.00;100832.25;4996859;28;20042;-44
2023/11/26 02:13:53;;;;;;;12.70;5.95;;;;;;;6.39;100.00;100823.19;5003734;28;20057;-44
2023/11/26 02:16:20;;;;;;;11.27;6.55;;;;;;;6.40;100.00;100827.56;5010297;28;20053;-45
2023/11/26 02:18:48;;;;;;;20.45;8.10;;;;;;;6.38;100.00;100827.06;5009910;28;20052;-46
2023/11/26 02:21:16;;;;;;;14.13;6.65;;;;;;;6.38;100.00;100827.06;4999235;28;20057;-45
2023/11/26 02:23:45;;;;;;;14.85;5.90;;;;;;;6.39;100.00;100824.00;5005651;28;20038;-44
2023/11/26 02:26:12;;;;;;;12.88;6.85;;;;;;;6.39;100.00;100820.44;5009494;28;20073;-44
2023/11/26 02:28:42;;;;;;;16.42;5.72;;;;;;;6.38;100.00;100819.63;5010022;28;20041;-46
2023/11/26 02:31:10;;;;;;;14.95;6.53;;;;;;;6.39;100.00;100806.69;5004808;28;20045;-45
2023/11/26 02:33:37;;;;;;;10.43;5.82;;;;;;;6.38;100.00;100808.63;5009067;28;20045;-43
2023/11/26 02:36:25;;;;;;;11.10;6.55;;;;;;;6.38;100.00;100797.63;5009325;28;20050;-44
2023/11/26 02:38:54;;;;;;;12.98;7.28;;;;;;;6.38;100.00;100802.31;5009868;28;20053;-43
2023/11/26 02:41:21;;;;;;;11.18;7.55;;;;;;;6.37;100.00;100801.50;5010167;28;20041;-44
2023/11/26 02:43:49;;;;;;;11.13;6.43;;;;;;;6.38;100.00;100796.81;5009529;28;20042;-45
2023/11/26 02:46:16;;;;;;;10.60;6.95;;;;;;;6.39;100.00;100790.19;5010006;28;20046;-43
2023/11/26 02:48:43;;;;;;;12.50;6.88;;;;;;;6.38;100.00;100783.09;5009651;28;20038;-45
2023/11/26 02:51:11;;;;;;;12.15;6.90;;;;;;;6.37;100.00;100776.75;5008985;28;20045;-44
2023/11/26 02:53:38;;;;;;;19.23;6.57;;;;;;;6.37;100.00;100768.50;5008452;28;20045;-43
2023/11/26 02:56:06;;;;;;;14.57;7.25;;;;;;;6.37;100.00;100770.44;5009277;28;20045;-44
2023/11/26 02:58:33;;;;;;;8.27;4.72;;;;;;;6.35;100.00;100765.28;5009820;28;20508;-45
2023/11/26 03:01:00;;;;;;;8.15;4.60;;;;;;;6.37;100.00;100762.19;5105604;23;20070;-43
2023/11/26 03:03:28;;;;;;;5.78;3.58;;;;;;;6.37;100.00;100757.53;5029038;28;20041;-44
2023/11/26 03:05:55;;;;;;;5.72;4.05;;;;;;;6.37;100.00;100752.00;5028742;28;20053;-45
2023/11/26 03:08:28;;;;;;;5.90;3.35;;;;;;;6.36;100.00;100744.06;5029409;28;20057;-44
2023/11/26 03:13:42;;;;;;;6.45;3.20;;;;;;;6.36;100.00;100738.56;5028545;28;20050;-44
2023/11/26 03:16:11;;;;;;;6.57;3.15;;;;;;;6.34;100.00;100727.91;5028915;28;20042;-45
2023/11/26 03:18:39;;;;;;;6.32;3.50;;;;;;;6.35;100.00;100732.28;5015669;28;20399;-44
2023/11/26 03:21:07;;;;;;;9.65;3.58;;;;;;;6.34;100.00;100732.59;5024070;28;20410;-44
2023/11/26 03:23:34;;;;;;;4.80;2.90;;;;;;;6.34;100.00;100736.16;5019627;28;20030;-43
2023/11/26 03:26:02;;;;;;;7.53;3.35;;;;;;;6.33;100.00;100726.25;5018331;28;20466;-45
2023/11/26 03:28:29;;;;;;;4.97;3.58;;;;;;;6.32;100.00;100724.66;5013422;28;20052;-47
2023/11/26 03:30:57;;;;;;;7.10;3.28;;;;;;;6.32;100.00;100716.41;5013542;28;20053;-44
2023/11/26 03:33:27;;;;;;;7.15;3.20;;;;;;;6.33;100.00;100718.00;5018443;28;20046;-42
2023/11/26 03:35:55;;;;;;;7.93;3.20;;;;;;;6.33;100.00;100718.00;5018713;28;20049;-43
2023/11/26 03:38:22;;;;;;;3.10;2.38;;;;;;;6.33;100.00;100715.25;5015821;28;20118;-44
2023/11/26 03:40:50;;;;;;;11.82;2.75;;;;;;;6.34;100.00;100716.91;5017155;28;20538;-45
2023/11/26 03:43:17;;;;;;;6.60;2.30;;;;;;;6.36;100.00;100703.63;5016282;28;20049;-43
2023/11/26 03:45:44;;;;;;;5.18;3.05;;;;;;;6.37;100.00;100699.78;4999903;28;20057;-44
2023/11/26 03:48:11;;;;;;;5.65;2.42;;;;;;;6.40;100.00;100701.06;5010330;28;20045;-42
2023/11/26 03:50:39;;;;;;;4.07;2.03;;;;;;;6.41;100.00;100702.69;5013847;28;20052;-46
2023/11/26 03:53:06;;;;;;;7.22;2.28;;;;;;;6.43;100.00;100700.44;4996718;28;20048;-47
2023/11/26 03:55:33;;;;;;;6.38;3.03;;;;;;;6.43;100.00;100700.44;5018149;28;20056;-44
2023/11/26 03:58:01;;;;;;;5.32;1.70;;;;;;;6.44;100.00;100697.34;5012116;28;20060;-46
2023/11/26 04:00:28;;;;;;;4.90;2.03;;;;;;;6.44;100.00;100696.53;5009449;28;20046;-45
2023/11/26 04:02:55;;;;;;;5.88;2.03;;;;;;;6.45;100.00;100693.50;5017988;28;20530;-42
2023/11/26 04:05:23;;;;;;;4.13;2.30;;;;;;;6.47;100.00;100690.41;5021579;28;20054;-44
2023/11/26 04:07:51;;;;;;;4.95;2.97;;;;;;;6.46;100.00;100692.34;5015699;28;20800;-44
2023/11/26 04:10:18;;;;;;;6.03;1.98;;;;;;;6.47;100.00;100685.72;5009055;28;20037;-44
2023/11/26 04:12:58;;;;;;;2.83;1.60;;;;;;;6.48;100.00;100681.84;5023534;28;20185;-44
2023/11/26 04:15:26;;;;;;;3.25;1.88;;;;;;;6.49;100.00;100666.97;5013482;28;20501;-43
2023/11/26 04:17:54;;;;;;;3.60;1.80;;;;;;;6.49;100.00;100661.47;5011519;28;20446;-44
2023/11/26 04:20:22;;;;;;;3.92;1.92;;;;;;;6.51;100.00;100672.94;5010320;28;20046;-44
2023/11/26 04:22:49;;;;;;;7.95;2.97;;;;;;;6.52;100.00;100671.81;5023103;28;20057;-45
2023/11/26 04:25:17;;;;;;;6.72;2.70;;;;;;;6.55;100.00;100673.94;5013805;28;21765;-44
2023/11/26 04:27:45;;;;;;;1.98;1.48;;;;;;;6.56;100.00;100667.31;5010403;28;20100;-46
2023/11/26 04:30:13;;;;;;;1.83;1.30;;;;;;;6.57;100.00;100657.91;5012091;28;20103;-44
2023/11/26 04:32:40;;;;;;;2.63;1.63;;;;;;;6.58;100.00;100662.31;4997712;28;20042;-46
2023/11/26 04:35:08;;;;;;;2.15;1.00;;;;;;;6.59;100.00;100655.66;5017421;28;20050;-45
2023/11/26 04:37:36;;;;;;;3.20;1.23;;;;;;;6.60;100.00;100643.53;5019982;28;20045;-45
2023/11/26 04:40:05;;;;;;;1.20;0.98;;;;;;;6.60;100.00;100651.78;5015831;28;20049;-44
2023/11/26 04:42:33;;;;;;;5.43;1.45;;;;;;;6.61;100.00;100652.59;5014389;28;20053;-44
2023/11/26 04:45:00;;;;;;;1.15;1.05;;;;;;;6.61;100.00;100653.41;5019528;28;20049;-42
2023/11/26 04:47:28;;;;;;;1.33;1.13;;;;;;;6.61;100.00;100655.34;4998473;28;20049;-44
2023/11/26 04:49:58;;;;;;;4.43;1.35;;;;;;;6.60;100.00;100646.28;5019850;28;20408;-43
2023/11/26 04:52:25;;;;;;;3.42;2.05;;;;;;;6.61;100.00;100644.34;5017768;28;20383;-48
2023/11/26 04:54:53;;;;;;;3.33;0.88;;;;;;;6.59;100.00;100644.66;5016503;28;20042;-47
2023/11/26 04:57:20;;;;;;;4.50;1.38;;;;;;;6.60;100.00;100642.72;5010457;28;20041;-44
2023/11/26 04:59:47;;;;;;;3.75;2.28;;;;;;;6.59;100.00;100639.16;5013074;28;20037;-45
2023/11/26 05:02:18;;;;;;;7.20;2.72;;;;;;;6.59;100.00;100639.16;5017947;28;20058;-46
2023/11/26 05:04:45;;;;;;;9.38;3.88;;;;;;;6.59;100.00;100628.16;5010528;28;20517;-44
2023/11/26 05:07:13;;;;;;;12.10;5.90;;;;;;;6.58;100.00;100634.78;5009726;28;20053;-46
2023/11/26 05:09:40;;;;;;;18.75;7.60;;;;;;;6.58;100.00;100632.03;5023929;28;20690;-44
2023/11/26 05:12:08;;;;;;;9.98;4.97;;;;;;;6.58;100.00;100631.22;5016081;28;20038;-44
2023/11/26 05:14:36;;;;;;;14.75;5.50;;;;;;;6.57;100.00;100633.16;5016188;28;20410;-43
2023/11/26 05:17:04;;;;;;;17.33;6.10;;;;;;;6.56;100.00;100631.56;5010621;28;20056;-45
2023/11/26 05:19:31;;;;;;;19.00;9.63;;;;;;;6.56;100.00;100639.00;5017087;28;20100;-44
2023/11/26 05:21:58;;;;;;;16.83;6.78;;;;;;;6.57;100.00;100629.59;5014194;28;20053;-44
2023/11/26 05:24:26;;;;;;;14.70;6.97;;;;;;;6.57;100.00;100624.09;5023396;28;20049;-42
2023/11/26 05:26:53;;;;;;;17.33;7.13;;;;;;;6.56;100.00;100626.06;5012789;28;20068;-44
2023/11/26 05:29:20;;;;;;;16.83;6.55;;;;;;;6.56;100.00;100623.31;5013067;28;20042;-43
2023/11/26 05:31:49;;;;;;;10.25;6.15;;;;;;;6.56;100.00;100626.06;5010380;28;20050;-44
2023/11/26 05:34:16;;;;;;;13.40;6.63;;;;;;;6.56;100.00;100615.06;5011730;28;20053;-44
2023/11/26 05:36:43;;;;;;;12.35;6.63;;;;;;;6.57;100.00;100611.16;4997861;28;20052;-44
2023/11/26 05:39:11;;;;;;;13.82;6.85;;;;;;;6.58;100.00;100615.53;5020877;28;20072;-44
2023/11/26 05:41:38;;;;;;;12.65;6.50;;;;;;;6.59;100.00;100616.34;5021241;28;20395;-44
2023/11/26 05:44:06;;;;;;;11.32;4.82;;;;;;;6.60;100.00;100612.47;5010513;28;20061;-46
2023/11/26 05:46:33;;;;;;;10.52;5.22;;;;;;;6.61;100.00;100609.41;4999899;28;20049;-46
2023/11/26 05:49:01;;;;;;;11.10;5.10;;;;;;;6.62;100.00;100605.50;5024983;28;20049;-45
2023/11/26 05:51:28;;;;;;;13.70;6.70;;;;;;;6.63;100.00;100612.63;5017634;28;20038;-45
2023/11/26 05:53:56;;;;;;;4.75;3.42;;;;;;;6.63;100.00;100604.38;5020446;28;20053;-46
2023/11/26 05:56:24;;;;;;;10.85;4.25;;;;;;;6.64;100.00;100610.69;5023373;28;20064;-44
2023/11/26 05:58:51;;;;;;;9.40;3.65;;;;;;;6.64;100.00;100608.75;5012658;28;20064;-44
2023/11/26 06:01:23;;;;;;;6.07;3.55;;;;;;;6.63;100.00;100598.88;5020689;28;20042;-43
2023/11/26 06:03:52;;;;;;;7.88;3.33;;;;;;;6.64;100.00;100603.25;5014547;28;20499;-44
2023/11/26 06:06:19;;;;;;;5.55;2.92;;;;;;;6.63;100.00;100600.81;5022971;28;20053;-43
2023/11/26 06:08:47;;;;;;;11.00;4.53;;;;;;;6.63;100.00;100598.06;5024823;28;20057;-44
2023/11/26 06:11:14;;;;;;;13.45;5.75;;;;;;;6.63;100.00;100596.13;5011348;28;20037;-46
2023/11/26 06:13:41;;;;;;;13.77;4.80;;;;;;;6.61;100.00;100598.41;5023781;28;20033;-47
2023/11/26 06:16:10;;;;;;;6.50;4.45;;;;;;;6.62;100.00;100604.69;5023831;28;20049;-44
2023/11/26 06:18:38;;;;;;;9.10;4.57;;;;;;;6.61;100.00;100598.41;5022493;28;20042;-44
2023/11/26 06:21:05;;;;;;;10.30;4.13;;;;;;;6.61;100.00;100601.16;5014922;28;20050;-42
2023/11/26 06:23:32;;;;;;;8.13;3.78;;;;;;;6.62;100.00;100594.50;5017727;28;20038;-47
2023/11/26 06:26:00;;;;;;;13.52;8.07;;;;;;;6.62;100.00;100582.69;5024332;28;20038;-44
2023/11/26 06:28:27;;;;;;;19.33;7.20;;;;;;;6.63;100.00;100593.38;5022585;28;20061;-45
2023/11/26 06:30:54;;;;;;;14.38;6.72;;;;;;;6.64;100.00;100586.75;5014019;28;20056;-44
2023/11/26 06:33:22;;;;;;;7.85;4.05;;;;;;;6.65;100.00;100577.34;5021140;28;20041;-44
2023/11/26 06:35:50;;;;;;;7.97;4.15;;;;;;;6.66;100.00;100573.47;5020648;28;20045;-44
2023/11/26 06:38:17;;;;;;;8.73;3.08;;;;;;;6.67;100.00;100569.56;5015632;28;20041;-44
2023/11/26 06:40:46;;;;;;;11.40;4.47;;;;;;;6.67;100.00;100566.81;5023076;28;20054;-45
2023/11/26 06:43:13;;;;;;;10.73;4.50;;;;;;;6.68;100.00;100571.22;5025791;28;20056;-44
2023/11/26 06:45:41;;;;;;;8.23;3.97;;;;;;;6.68;100.00;100560.22;5020099;28;20700;-43
2023/11/26 06:48:10;;;;;;;5.82;3.55;;;;;;;6.69;100.00;100553.59;5023352;28;20566;-43
2023/11/26 06:50:37;;;;;;;14.38;4.22;;;;;;;6.69;100.00;100548.06;5013779;28;20034;-45
2023/11/26 06:53:05;;;;;;;4.55;3.20;;;;;;;6.68;100.00;100551.94;4996388;28;20045;-42
2023/11/26 06:55:32;;;;;;;7.47;3.70;;;;;;;6.68;100.00;100548.38;5014726;28;20050;-44
2023/11/26 06:58:00;;;;;;;8.63;3.22;;;;;;;6.67;100.00;100544.81;5015835;28;20402;-44
2023/11/26 07:00:29;;;;;;;8.27;2.53;;;;;;;6.67;100.00;100552.28;5014540;28;20426;-45
2023/11/26 07:02:57;;;;;;;5.93;2.70;;;;;;;6.65;100.00;100557.28;5020315;28;20054;-44
2023/11/26 07:05:25;;;;;;;3.13;2.30;;;;;;;6.60;100.00;100539.00;5024718;28;20410;-46
2023/11/26 07:07:52;;;;;;;11.75;2.72;;;;;;;6.60;100.00;100547.25;5000213;28;20034;-43
2023/11/26 07:10:21;;;;;;;13.40;3.63;;;;;;;6.58;100.00;100538.53;5015278;28;20053;-43
2023/11/26 07:12:48;;;;;;;4.75;2.30;;;;;;;6.60;100.00;100546.44;5013097;28;20060;-43
2023/11/26 07:15:15;;;;;;;11.30;5.03;;;;;;;6.58;100.00;100535.78;5010095;28;20042;-44
2023/11/26 07:17:43;;;;;;;8.10;2.92;;;;;;;6.57;100.00;100531.41;5014144;28;20402;-45
2023/11/26 07:20:13;;;;;;;9.52;5.22;;;;;;;6.57;100.00;100528.66;5012364;28;20049;-44
2023/11/26 07:22:40;;;;;;;4.50;2.92;;;;;;;6.58;100.00;100530.28;5017089;28;20128;-45
2023/11/26 07:25:08;;;;;;;6.25;3.10;;;;;;;6.57;100.00;100528.66;5010467;28;20042;-43
2023/11/26 07:27:35;;;;;;;9.52;3.08;;;;;;;6.59;100.00;100523.63;5019779;28;20037;-44
2023/11/26 07:30:03;;;;;;;4.93;3.03;;;;;;;6.59;100.00;100522.84;5017682;28;20049;-43
2023/11/26 07:32:30;;;;;;;15.15;3.30;;;;;;;6.58;100.00;100527.53;5012296;28;20041;-49
2023/11/26 07:34:58;;;;;;;9.48;3.20;;;;;;;6.59;100.00;100520.88;5013718;28;20391;-44
2023/11/26 07:37:27;;;;;;;9.82;2.92;;;;;;;6.61;100.00;100523.31;5018830;28;20061;-47
2023/11/26 07:39:55;;;;;;;7.03;2.97;;;;;;;6.62;100.00;100522.97;5015308;28;20511;-44
2023/11/26 07:42:23;;;;;;;7.50;2.70;;;;;;;6.65;100.00;100522.34;5022039;28;20038;-43
2023/11/26 07:44:50;;;;;;;6.40;2.30;;;;;;;6.67;100.00;100524.78;5014737;28;20053;-46
2023/11/26 07:47:17;;;;;;;2.95;2.28;;;;;;;6.70;100.00;100510.34;5015108;28;20045;-45
2023/11/26 07:49:45;;;;;;;8.48;2.60;;;;;;;6.73;100.00;100512.47;5022929;28;20066;-44
2023/11/26 07:52:12;;;;;;;3.20;2.38;;;;;;;6.75;100.00;100511.00;5009237;28;20042;-43
2023/11/26 07:54:39;;;;;;;11.90;2.78;;;;;;;6.78;100.00;100508.75;5018037;28;20041;-43
2023/11/26 07:57:07;;;;;;;4.82;2.00;;;;;;;6.80;100.00;100517.47;5027960;28;20053;-43
2023/11/26 07:59:34;;;;;;;4.32;1.80;;;;;;;6.81;100.00;100516.31;5017444;28;20046;-46
2023/11/26 08:02:01;;;;;;;2.80;1.83;;;;;;;6.83;100.00;100508.56;5018293;28;20060;-43
2023/11/26 08:04:29;;;;;;;4.82;2.30;;;;;;;6.84;100.00;100511.00;5016042;28;20041;-43
2023/11/26 08:06:57;;;;;;;6.55;1.70;;;;;;;6.86;100.00;100516.97;5025700;28;20054;-43
2023/11/26 08:09:24;;;;;;;5.60;1.48;;;;;;;6.87;100.00;100507.59;5021345;28;20041;-45
2023/11/26 08:11:55;;;;;;;7.20;1.55;;;;;;;6.89;100.00;100516.31;5019056;28;20462;-44
2023/11/26 08:14:24;;;;;;;3.67;1.50;;;;;;;6.91;100.00;100516.00;5025127;28;20045;-44
2023/11/26 08:16:54;;;;;;;4.93;2.05;;;;;;;6.92;100.00;100509.34;5025457;28;20062;-45
2023/11/26 08:19:24;;;;;;;6.55;2.45;;;;;;;6.95;100.00;100508.72;4995532;28;20526;-44
2023/11/26 08:21:55;;;;;;;6.82;2.20;;;;;;;6.97;100.00;100518.25;5013861;28;20053;-43
2023/11/26 08:24:23;;;;;;;8.27;2.65;;;;;;;6.99;100.00;100510.47;5020561;28;20041;-43
2023/11/26 08:26:53;;;;;;;9.07;2.88;;;;;;;7.02;100.00;100509.00;5021888;28;20046;-45
2023/11/26 08:29:21;;;;;;;6.70;3.10;;;;;;;7.04;100.00;100490.25;5027659;28;20045;-46
2023/11/26 08:31:49;;;;;;;8.55;3.20;;;;;;;7.07;100.00;100484.88;5026869;28;20045;-44
2023/11/26 08:34:17;;;;;;;4.97;2.78;;;;;;;7.12;100.00;100490.19;5026846;28;20053;-44
2023/11/26 08:36:45;;;;;;;5.05;2.38;;;;;;;7.14;100.00;100485.19;5027273;28;20421;-46
2023/11/26 08:39:26;;;;;;;8.07;2.45;;;;;;;7.18;100.00;100485.31;5022784;28;20504;-43
2023/11/26 08:41:54;;;;;;;4.72;2.45;;;;;;;7.21;100.00;100487.44;5026283;28;20076;-43
2023/11/26 08:44:22;;;;;;;8.77;2.60;;;;;;;7.23;100.00;100485.16;5027023;28;20052;-46
2023/11/26 08:46:49;;;;;;;5.43;2.53;;;;;;;7.27;100.00;100492.44;5027016;28;20053;-43
2023/11/26 08:49:20;;;;;;;12.00;4.22;;;;;;;7.30;100.00;100486.28;5021062;28;20510;-45
2023/11/26 08:51:48;;;;;;;17.60;8.33;;;;;;;7.34;100.00;100483.66;5027449;28;20056;-45
2023/11/26 08:54:17;;;;;;;16.02;8.95;;;;;;;7.38;100.00;100481.88;5024008;28;20052;-47
2023/11/26 08:56:45;;;;;;;19.95;8.07;;;;;;;7.42;100.00;100471.78;5015327;28;20057;-45
2023/11/26 08:59:12;;;;;;;12.90;6.00;;;;;;;7.46;100.00;100485.72;5019581;28;20062;-47
2023/11/26 09:01:40;;;;;;;10.10;4.00;;;;;;;7.48;100.00;100478.75;5012651;28;20060;-44
2023/11/26 09:04:08;;;;;;;10.68;3.80;;;;;;;7.51;100.00;100482.78;5017750;28;20046;-44
2023/11/26 09:06:37;;;;;;;4.68;3.42;;;;;;;7.54;100.00;100480.19;5024654;28;20041;-44
2023/11/26 09:09:05;;;;;;;10.27;4.00;;;;;;;7.57;100.00;100481.47;5008696;28;20618;-45
2023/11/26 09:11:32;;;;;;;7.22;2.58;;;;;;;7.59;100.00;100474.47;5018996;28;20419;-45
2023/11/26 09:13:59;;;;;;;8.88;3.20;;;;;;;7.63;100.00;100469.91;5013638;28;20041;-44
2023/11/26 09:16:29;;;;;;;5.38;3.03;;;;;;;7.66;100.00;100477.50;5022141;28;20046;-44
2023/11/26 09:18:57;;;;;;;9.02;3.45;;;;;;;7.70;100.00;100466.66;5006462;28;20684;-44
2023/11/26 09:21:25;;;;;;;8.88;2.75;;;;;;;7.74;100.00;100462.06;5020859;28;20069;-44
2023/11/26 09:23:53;;;;;;;7.47;3.28;;;;;;;7.77;100.00;100469.69;5021018;28;20494;-44
2023/11/26 09:26:21;;;;;;;6.63;2.85;;;;;;;7.79;100.00;100462.69;5006805;28;20419;-44
2023/11/26 09:28:49;;;;;;;11.52;5.20;;;;;;;7.82;100.00;100462.03;5018479;28;20050;-43
2023/11/26 09:31:23;;;;;;;6.07;3.13;;;;;;;7.85;100.00;100461.38;5019381;28;20757;-44
2023/11/26 09:33:51;;;;;;;9.50;3.78;;;;;;;7.87;100.00;100464.59;5026534;28;20045;-44
2023/11/26 09:36:18;;;;;;;6.82;2.65;;;;;;;7.89;100.00;100461.47;5027037;28;20056;-45
2023/11/26 09:38:45;;;;;;;6.18;2.75;;;;;;;7.90;100.00;100458.41;5015555;28;20046;-43
2023/11/26 09:41:22;;;;;;;4.00;2.25;;;;;;;7.92;100.00;100456.13;5020384;28;20052;-51
2023/11/26 09:43:50;;;;;;;7.13;2.60;;;;;;;7.94;100.00;100453.84;5020316;28;20042;-45
2023/11/26 09:46:22;;;;;;;4.18;2.28;;;;;;;7.94;100.00;100442.81;5010770;28;20053;-43
2023/11/26 09:48:49;;;;;;;8.88;2.63;;;;;;;7.96;100.00;100446.06;5019766;28;20057;-43
2023/11/26 09:51:23;;;;;;;8.13;2.72;;;;;;;7.97;100.00;100442.13;5016580;28;20037;-45
2023/11/26 09:53:52;;;;;;;8.95;2.53;;;;;;;8.00;100.00;100448.94;5020958;28;20061;-44
2023/11/26 09:56:19;;;;;;;8.05;2.50;;;;;;;8.03;100.00;100445.50;5017209;28;20529;-45
2023/11/26 09:58:47;;;;;;;7.57;2.22;;;;;;;8.05;100.00;100451.47;5026449;28;20056;-45
2023/11/26 10:01:14;;;;;;;4.60;2.47;;;;;;;8.07;100.00;100445.66;5020078;28;20061;-45
2023/11/26 10:04:01;;;;;;;6.50;2.38;;;;;;;8.10;100.00;100451.28;5007852;28;20050;-43
2023/11/26 10:06:28;;;;;;;4.07;2.03;;;;;;;8.13;100.00;100444.31;5014644;28;20056;-44
2023/11/26 10:08:58;;;;;;;6.28;2.20;;;;;;;8.16;100.00;100433.41;5021641;28;20056;-44
2023/11/26 10:11:26;;;;;;;9.57;2.92;;;;;;;8.19;100.00;100434.69;5026787;28;20045;-45
2023/11/26 10:13:54;;;;;;;3.95;1.90;;;;;;;8.21;100.00;100430.44;5016343;28;20054;-43
2023/11/26 10:16:34;;;;;;;5.03;2.25;;;;;;;8.24;100.00;100434.47;5025648;28;20056;-47
2023/11/26 10:19:02;;;;;;;6.82;2.63;;;;;;;8.27;100.00;100429.13;5023934;28;20514;-44
2023/11/26 10:21:31;;;;;;;6.55;3.58;;;;;;;8.31;100.00;100429.28;5007497;28;20062;-46
2023/11/26 10:24:03;;;;;;;6.72;2.47;;;;;;;8.32;100.00;100436.38;5015985;28;20049;-43
2023/11/26 10:26:32;;;;;;;10.52;3.15;;;;;;;8.35;100.00;100427.44;5026384;28;20518;-47
2023/11/26 10:29:07;;;;;;;4.28;1.45;;;;;;;8.38;100.00;100435.84;5019875;28;20056;-43
2023/11/26 10:31:36;;;;;;;3.42;1.50;;;;;;;8.39;100.00;100426.41;5001334;28;20137;-47
2023/11/26 10:34:14;;;;;;;6.28;1.83;;;;;;;8.42;100.00;100422.97;5012608;28;20129;-43
2023/11/26 10:36:42;;;;;;;4.65;2.05;;;;;;;8.44;100.00;100428.19;5004074;28;20442;-45
2023/11/26 10:39:11;;;;;;;3.67;1.80;;;;;;;8.45;100.00;100415.97;5014796;28;20423;-45
2023/11/26 10:41:39;;;;;;;6.35;1.60;;;;;;;8.48;100.00;100423.59;5014002;28;20040;-42
2023/11/26 10:44:07;;;;;;;4.43;1.75;;;;;;;8.50;100.00;100418.53;5016137;28;20096;-44
2023/11/26 10:46:35;;;;;;;5.15;1.65;;;;;;;8.52;100.00;100419.03;4998398;28;20064;-42
2023/11/26 10:49:18;;;;;;;3.80;1.20;;;;;;;8.55;100.00;100424.66;5017316;28;20098;-44
2023/11/26 10:52:09;;;;;;;3.80;1.33;;;;;;;8.57;100.00;100422.38;5030198;28;20054;-47
2023/11/26 10:55:00;;;;;;;4.78;1.30;;;;;;;8.57;100.00;100416.03;5017073;28;20037;-46
2023/11/26 10:57:51;;;;;;;10.23;1.70;;;;;;;8.59;100.00;100405.47;5021104;28;20052;-43
2023/11/26 11:00:19;;;;;;;5.32;1.70;;;;;;;8.60;100.00;100398.81;5014758;28;20054;-46
2023/11/26 11:02:50;;;;;;;6.57;2.58;;;;;;;8.64;100.00;100399.72;4993589;28;20065;-43
2023/11/26 11:05:25;;;;;;;3.60;1.20;;;;;;;8.68;100.00;100397.09;5027790;28;20084;-46
2023/11/26 11:07:52;;;;;;;2.78;1.30;;;;;;;8.72;100.00;100386.97;5023074;28;20050;-45
2023/11/26 11:10:36;;;;;;;3.97;1.60;;;;;;;8.74;100.00;100392.97;5025907;28;20049;-44
2023/11/26 11:13:14;;;;;;;4.03;1.15;;;;;;;8.78;100.00;100377.34;5013598;28;20054;-44
2023/11/26 11:15:43;;;;;;;4.03;1.30;;;;;;;8.82;100.00;100381.84;5018651;28;20056;-49
2023/11/26 11:18:30;;;;;;;7.55;2.45;;;;;;;8.87;100.00;100383.59;5018663;28;20048;-46
2023/11/26 11:21:09;;;;;;;5.35;1.33;;;;;;;8.90;100.00;100369.88;5015946;28;20041;-44
2023/11/26 11:23:51;;;;;;;3.50;1.60;;;;;;;8.93;100.00;100360.91;5025235;28;20048;-47
2023/11/26 11:26:20;;;;;;;6.07;1.35;;;;;;;8.98;100.00;100363.44;5028007;28;20364;-45
2023/11/26 11:28:47;;;;;;;9.13;2.20;;;;;;;9.02;100.00;100361.63;5012369;28;20064;-45
2023/11/26 11:31:17;;;;;;;3.15;1.40;;;;;;;9.05;100.00;100360.91;5017054;28;20037;-42